sensor_id;sensor_type;location;lat;lon;timestamp;temperature;humidity
26595;DHT22;14238;49.496;8.154;2022-07-06T00:01:17;17.70;99.90
26595;DHT22;14238;49.496;8.154;2022-07-06T00:03:42;17.70;99.90
26595;DHT22;14238;49.496;8.154;2022-07-06T00:06:08;17.60;99.90
26595;DHT22;14238;49.496;8.154;2022-07-06T00:08:33;17.60;99.90
26595;DHT22;14238;49.496;8.154;2022-07-06T00:10:59;17.60;99.90
26595;DHT22;14238;49.496;8.154;2022-07-06T00:13:26;17.60;99.90
26595;DHT22;14238;49.496;8.154;2022-07-06T00:15:51;17.60;99.90
26595;DHT22;14238;49.496;8.154;2022-07-06T00:18:17;17.50;99.90
26595;DHT22;14238;49.496;8.154;2022-07-06T00:20:42;17.50;99.90
26595;DHT22;14238;49.496;8.154;2022-07-06T00:23:08;17.50;99.90
26595;DHT22;14238;49.496;8.154;2022-07-06T00:25:33;17.50;99.90
26595;DHT22;14238;49.496;8.154;2022-07-06T00:27:59;17.40;99.90
26595;DHT22;14238;49.496;8.154;2022-07-06T00:30:24;17.40;99.90
26595;DHT22;14238;49.496;8.154;2022-07-06T00:32:50;17.40;99.90
26595;DHT22;14238;49.496;8.154;2022-07-06T00:35:16;17.30;99.90
26595;DHT22;14238;49.496;8.154;2022-07-06T00:37:41;17.40;99.90
26595;DHT22;14238;49.496;8.154;2022-07-06T00:40:07;17.40;99.90
26595;DHT22;14238;49.496;8.154;2022-07-06T00:42:47;17.30;99.90
26595;DHT22;14238;49.496;8.154;2022-07-06T00:45:14;17.20;99.90
26595;DHT22;14238;49.496;8.154;2022-07-06T00:47:40;17.20;99.90
26595;DHT22;14238;49.496;8.154;2022-07-06T00:50:08;17.10;99.90
26595;DHT22;14238;49.496;8.154;2022-07-06T00:52:45;17.10;99.90
26595;DHT22;14238;49.496;8.154;2022-07-06T00:55:11;17.10;99.90
26595;DHT22;14238;49.496;8.154;2022-07-06T00:57:37;17.10;99.90
26595;DHT22;14238;49.496;8.154;2022-07-06T01:00:05;17.00;99.90
26595;DHT22;14238;49.496;8.154;2022-07-06T01:02:31;17.00;99.90
26595;DHT22;14238;49.496;8.154;2022-07-06T01:04:57;17.00;99.90
26595;DHT22;14238;49.496;8.154;2022-07-06T01:07:23;16.90;99.90
26595;DHT22;14238;49.496;8.154;2022-07-06T01:09:49;16.90;99.90
26595;DHT22;14238;49.496;8.154;2022-07-06T01:12:14;17.00;99.90
26595;DHT22;14238;49.496;8.154;2022-07-06T01:14:40;16.90;99.90
26595;DHT22;14238;49.496;8.154;2022-07-06T01:17:07;16.80;99.90
26595;DHT22;14238;49.496;8.154;2022-07-06T01:19:33;16.80;99.90
26595;DHT22;14238;49.496;8.154;2022-07-06T01:21:58;16.80;99.90
26595;DHT22;14238;49.496;8.154;2022-07-06T01:24:25;16.70;99.90
26595;DHT22;14238;49.496;8.154;2022-07-06T01:26:51;16.70;99.90
26595;DHT22;14238;49.496;8.154;2022-07-06T01:29:17;16.80;99.90
26595;DHT22;14238;49.496;8.154;2022-07-06T01:31:50;16.70;99.90
26595;DHT22;14238;49.496;8.154;2022-07-06T01:34:16;16.70;99.90
26595;DHT22;14238;49.496;8.154;2022-07-06T01:36:42;16.70;99.90
26595;DHT22;14238;49.496;8.154;2022-07-06T01:39:09;16.60;99.90
26595;DHT22;14238;49.496;8.154;2022-07-06T01:41:35;16.70;99.90
26595;DHT22;14238;49.496;8.154;2022-07-06T01:44:01;16.60;99.90
26595;DHT22;14238;49.496;8.154;2022-07-06T01:46:27;16.50;99.90
26595;DHT22;14238;49.496;8.154;2022-07-06T01:48:53;16.50;99.90
26595;DHT22;14238;49.496;8.154;2022-07-06T01:51:18;16.40;99.90
26595;DHT22;14238;49.496;8.154;2022-07-06T01:53:44;16.40;99.90
26595;DHT22;14238;49.496;8.154;2022-07-06T01:56:10;16.40;99.90
26595;DHT22;14238;49.496;8.154;2022-07-06T01:58:37;16.40;99.90
26595;DHT22;14238;49.496;8.154;2022-07-06T02:01:10;16.30;99.90
26595;DHT22;14238;49.496;8.154;2022-07-06T02:03:36;16.30;99.90
26595;DHT22;14238;49.496;8.154;2022-07-06T02:06:03;16.30;99.90
26595;DHT22;14238;49.496;8.154;2022-07-06T02:08:29;16.20;99.90
26595;DHT22;14238;49.496;8.154;2022-07-06T02:10:54;16.20;99.90
26595;DHT22;14238;49.496;8.154;2022-07-06T02:13:20;16.20;99.90
26595;DHT22;14238;49.496;8.154;2022-07-06T02:15:45;16.20;99.90
26595;DHT22;14238;49.496;8.154;2022-07-06T02:18:11;16.20;99.90
26595;DHT22;14238;49.496;8.154;2022-07-06T02:20:37;16.30;99.90
26595;DHT22;14238;49.496;8.154;2022-07-06T02:23:02;16.20;99.90
26595;DHT22;14238;49.496;8.154;2022-07-06T02:25:28;16.20;99.90
26595;DHT22;14238;49.496;8.154;2022-07-06T02:27:54;16.10;99.90
26595;DHT22;14238;49.496;8.154;2022-07-06T02:30:19;16.20;99.90
26595;DHT22;14238;49.496;8.154;2022-07-06T02:32:45;16.20;99.90
26595;DHT22;14238;49.496;8.154;2022-07-06T02:35:10;16.10;99.90
26595;DHT22;14238;49.496;8.154;2022-07-06T02:37:36;16.10;99.90
26595;DHT22;14238;49.496;8.154;2022-07-06T02:40:01;16.10;99.90
26595;DHT22;14238;49.496;8.154;2022-07-06T02:42:27;16.00;99.90
26595;DHT22;14238;49.496;8.154;2022-07-06T02:44:53;16.00;99.90
26595;DHT22;14238;49.496;8.154;2022-07-06T02:47:19;15.90;99.90
26595;DHT22;14238;49.496;8.154;2022-07-06T02:49:46;15.90;99.90
26595;DHT22;14238;49.496;8.154;2022-07-06T02:52:11;15.90;99.90
26595;DHT22;14238;49.496;8.154;2022-07-06T02:54:37;15.80;99.90
26595;DHT22;14238;49.496;8.154;2022-07-06T02:57:03;15.80;99.90
26595;DHT22;14238;49.496;8.154;2022-07-06T02:59:28;15.80;99.90
26595;DHT22;14238;49.496;8.154;2022-07-06T03:01:54;15.80;99.90
26595;DHT22;14238;49.496;8.154;2022-07-06T03:04:19;15.80;99.90
26595;DHT22;14238;49.496;8.154;2022-07-06T03:06:45;15.70;99.90
26595;DHT22;14238;49.496;8.154;2022-07-06T03:09:10;15.70;99.90
26595;DHT22;14238;49.496;8.154;2022-07-06T03:11:36;15.60;99.90
26595;DHT22;14238;49.496;8.154;2022-07-06T03:14:03;15.60;99.90
26595;DHT22;14238;49.496;8.154;2022-07-06T03:16:29;15.50;99.90
26595;DHT22;14238;49.496;8.154;2022-07-06T03:18:54;15.50;99.90
26595;DHT22;14238;49.496;8.154;2022-07-06T03:21:20;15.50;99.90
26595;DHT22;14238;49.496;8.154;2022-07-06T03:23:45;15.40;99.90
26595;DHT22;14238;49.496;8.154;2022-07-06T03:26:11;15.40;99.90
26595;DHT22;14238;49.496;8.154;2022-07-06T03:28:36;15.40;99.90
26595;DHT22;14238;49.496;8.154;2022-07-06T03:31:02;15.40;99.90
26595;DHT22;14238;49.496;8.154;2022-07-06T03:33:27;15.30;99.90
26595;DHT22;14238;49.496;8.154;2022-07-06T03:35:53;15.30;99.90
26595;DHT22;14238;49.496;8.154;2022-07-06T03:38:18;15.20;99.90
26595;DHT22;14238;49.496;8.154;2022-07-06T03:40:44;15.30;99.90
26595;DHT22;14238;49.496;8.154;2022-07-06T03:43:10;15.30;99.90
26595;DHT22;14238;49.496;8.154;2022-07-06T03:45:35;15.30;99.90
26595;DHT22;14238;49.496;8.154;2022-07-06T03:48:01;15.30;99.90
26595;DHT22;14238;49.496;8.154;2022-07-06T03:50:26;15.40;99.90
26595;DHT22;14238;49.496;8.154;2022-07-06T03:52:52;15.30;99.90
26595;DHT22;14238;49.496;8.154;2022-07-06T03:55:17;15.30;99.90
26595;DHT22;14238;49.496;8.154;2022-07-06T03:57:43;15.20;99.90
26595;DHT22;14238;49.496;8.154;2022-07-06T04:00:09;15.20;99.90
26595;DHT22;14238;49.496;8.154;2022-07-06T04:02:35;15.20;99.90
26595;DHT22;14238;49.496;8.154;2022-07-06T04:05:00;15.20;99.90
26595;DHT22;14238;49.496;8.154;2022-07-06T04:07:26;15.20;99.90
26595;DHT22;14238;49.496;8.154;2022-07-06T04:09:52;15.10;99.90
26595;DHT22;14238;49.496;8.154;2022-07-06T04:12:17;15.10;99.90
26595;DHT22;14238;49.496;8.154;2022-07-06T04:14:43;15.10;99.90
26595;DHT22;14238;49.496;8.154;2022-07-06T04:17:09;15.10;99.90
26595;DHT22;14238;49.496;8.154;2022-07-06T04:19:53;15.10;99.90
26595;DHT22;14238;49.496;8.154;2022-07-06T04:22:19;15.10;99.90
26595;DHT22;14238;49.496;8.154;2022-07-06T04:24:44;15.00;99.90
26595;DHT22;14238;49.496;8.154;2022-07-06T04:27:10;15.10;99.90
26595;DHT22;14238;49.496;8.154;2022-07-06T04:29:36;15.10;99.90
26595;DHT22;14238;49.496;8.154;2022-07-06T04:32:01;15.00;99.90
26595;DHT22;14238;49.496;8.154;2022-07-06T04:34:27;15.00;99.90
26595;DHT22;14238;49.496;8.154;2022-07-06T04:36:52;15.10;99.90
26595;DHT22;14238;49.496;8.154;2022-07-06T04:39:18;15.00;99.90
26595;DHT22;14238;49.496;8.154;2022-07-06T04:41:43;15.10;99.90
26595;DHT22;14238;49.496;8.154;2022-07-06T04:44:09;15.10;99.90
26595;DHT22;14238;49.496;8.154;2022-07-06T04:46:34;15.10;99.90
26595;DHT22;14238;49.496;8.154;2022-07-06T04:49:00;15.10;99.90
26595;DHT22;14238;49.496;8.154;2022-07-06T04:51:26;15.20;99.90
26595;DHT22;14238;49.496;8.154;2022-07-06T04:53:51;15.20;99.90
26595;DHT22;14238;49.496;8.154;2022-07-06T04:56:17;15.20;99.90
26595;DHT22;14238;49.496;8.154;2022-07-06T04:58:42;15.20;99.90
26595;DHT22;14238;49.496;8.154;2022-07-06T05:01:08;15.30;99.90
26595;DHT22;14238;49.496;8.154;2022-07-06T05:03:34;15.30;99.90
26595;DHT22;14238;49.496;8.154;2022-07-06T05:06:04;15.40;99.90
26595;DHT22;14238;49.496;8.154;2022-07-06T05:08:30;15.40;99.90
26595;DHT22;14238;49.496;8.154;2022-07-06T05:10:56;15.40;99.90
26595;DHT22;14238;49.496;8.154;2022-07-06T05:13:21;15.50;99.90
26595;DHT22;14238;49.496;8.154;2022-07-06T05:15:47;15.50;99.90
26595;DHT22;14238;49.496;8.154;2022-07-06T05:18:12;15.50;99.90
26595;DHT22;14238;49.496;8.154;2022-07-06T05:20:38;15.40;99.90
26595;DHT22;14238;49.496;8.154;2022-07-06T05:23:03;15.50;99.90
26595;DHT22;14238;49.496;8.154;2022-07-06T05:25:29;15.50;99.90
26595;DHT22;14238;49.496;8.154;2022-07-06T05:27:55;15.40;99.90
26595;DHT22;14238;49.496;8.154;2022-07-06T05:30:21;15.50;99.90
26595;DHT22;14238;49.496;8.154;2022-07-06T05:32:46;15.50;99.90
26595;DHT22;14238;49.496;8.154;2022-07-06T05:35:12;15.60;99.90
26595;DHT22;14238;49.496;8.154;2022-07-06T05:37:37;15.60;99.90
26595;DHT22;14238;49.496;8.154;2022-07-06T05:40:03;15.60;99.90
26595;DHT22;14238;49.496;8.154;2022-07-06T05:42:29;15.70;99.90
26595;DHT22;14238;49.496;8.154;2022-07-06T05:44:55;15.70;99.90
26595;DHT22;14238;49.496;8.154;2022-07-06T05:47:22;15.80;99.90
26595;DHT22;14238;49.496;8.154;2022-07-06T05:50:06;15.70;99.90
26595;DHT22;14238;49.496;8.154;2022-07-06T05:52:39;15.80;99.90
26595;DHT22;14238;49.496;8.154;2022-07-06T05:55:06;15.70;99.90
26595;DHT22;14238;49.496;8.154;2022-07-06T05:57:31;15.60;99.90
26595;DHT22;14238;49.496;8.154;2022-07-06T05:59:57;15.70;99.90
26595;DHT22;14238;49.496;8.154;2022-07-06T06:02:22;15.80;99.90
26595;DHT22;14238;49.496;8.154;2022-07-06T06:04:48;15.80;99.90
26595;DHT22;14238;49.496;8.154;2022-07-06T06:07:13;15.80;99.90
26595;DHT22;14238;49.496;8.154;2022-07-06T06:09:39;15.90;99.90
26595;DHT22;14238;49.496;8.154;2022-07-06T06:12:04;15.90;99.90
26595;DHT22;14238;49.496;8.154;2022-07-06T06:14:30;15.80;99.90
26595;DHT22;14238;49.496;8.154;2022-07-06T06:16:56;15.80;99.90
26595;DHT22;14238;49.496;8.154;2022-07-06T06:19:21;15.90;99.90
26595;DHT22;14238;49.496;8.154;2022-07-06T06:21:47;15.80;99.90
26595;DHT22;14238;49.496;8.154;2022-07-06T06:24:12;15.90;99.90
26595;DHT22;14238;49.496;8.154;2022-07-06T06:26:38;15.80;99.90
26595;DHT22;14238;49.496;8.154;2022-07-06T06:29:03;15.90;99.90
26595;DHT22;14238;49.496;8.154;2022-07-06T06:31:29;15.90;99.90
26595;DHT22;14238;49.496;8.154;2022-07-06T06:33:54;15.90;99.90
26595;DHT22;14238;49.496;8.154;2022-07-06T06:36:20;15.90;99.90
26595;DHT22;14238;49.496;8.154;2022-07-06T06:38:45;16.00;99.90
26595;DHT22;14238;49.496;8.154;2022-07-06T06:41:11;16.10;99.90
26595;DHT22;14238;49.496;8.154;2022-07-06T06:43:37;16.30;99.90
26595;DHT22;14238;49.496;8.154;2022-07-06T06:46:03;16.30;99.90
26595;DHT22;14238;49.496;8.154;2022-07-06T06:48:28;16.30;99.90
26595;DHT22;14238;49.496;8.154;2022-07-06T06:50:54;16.40;99.90
26595;DHT22;14238;49.496;8.154;2022-07-06T06:53:19;16.40;99.90
26595;DHT22;14238;49.496;8.154;2022-07-06T06:55:45;16.40;99.90
26595;DHT22;14238;49.496;8.154;2022-07-06T06:58:10;16.40;99.90
26595;DHT22;14238;49.496;8.154;2022-07-06T07:00:36;16.40;99.90
26595;DHT22;14238;49.496;8.154;2022-07-06T07:03:02;16.40;99.90
26595;DHT22;14238;49.496;8.154;2022-07-06T07:05:27;16.40;99.90
26595;DHT22;14238;49.496;8.154;2022-07-06T07:07:53;16.50;99.90
26595;DHT22;14238;49.496;8.154;2022-07-06T07:10:20;16.60;99.90
26595;DHT22;14238;49.496;8.154;2022-07-06T07:12:47;16.60;99.90
26595;DHT22;14238;49.496;8.154;2022-07-06T07:15:13;16.60;99.90
26595;DHT22;14238;49.496;8.154;2022-07-06T07:17:40;16.70;99.90
26595;DHT22;14238;49.496;8.154;2022-07-06T07:20:06;16.70;99.90
26595;DHT22;14238;49.496;8.154;2022-07-06T07:22:32;16.80;99.90
26595;DHT22;14238;49.496;8.154;2022-07-06T07:24:58;16.90;99.90
26595;DHT22;14238;49.496;8.154;2022-07-06T07:27:25;16.90;99.90
26595;DHT22;14238;49.496;8.154;2022-07-06T07:29:50;17.10;99.90
26595;DHT22;14238;49.496;8.154;2022-07-06T07:32:16;17.20;99.90
26595;DHT22;14238;49.496;8.154;2022-07-06T07:34:42;17.20;99.90
26595;DHT22;14238;49.496;8.154;2022-07-06T07:37:07;17.30;99.90
26595;DHT22;14238;49.496;8.154;2022-07-06T07:39:33;17.40;99.90
26595;DHT22;14238;49.496;8.154;2022-07-06T07:41:58;17.20;99.90
26595;DHT22;14238;49.496;8.154;2022-07-06T07:44:24;17.40;99.90
26595;DHT22;14238;49.496;8.154;2022-07-06T07:46:52;17.50;99.90
26595;DHT22;14238;49.496;8.154;2022-07-06T07:49:18;17.40;99.90
26595;DHT22;14238;49.496;8.154;2022-07-06T07:51:44;17.50;99.90
26595;DHT22;14238;49.496;8.154;2022-07-06T07:54:12;17.60;99.90
26595;DHT22;14238;49.496;8.154;2022-07-06T07:56:37;17.80;99.90
26595;DHT22;14238;49.496;8.154;2022-07-06T07:59:06;18.00;99.90
26595;DHT22;14238;49.496;8.154;2022-07-06T08:01:32;18.00;99.90
26595;DHT22;14238;49.496;8.154;2022-07-06T08:03:58;18.10;99.90
26595;DHT22;14238;49.496;8.154;2022-07-06T08:06:23;18.20;99.90
26595;DHT22;14238;49.496;8.154;2022-07-06T08:08:49;18.20;99.90
26595;DHT22;14238;49.496;8.154;2022-07-06T08:11:14;18.10;99.90
26595;DHT22;14238;49.496;8.154;2022-07-06T08:13:40;18.20;99.90
26595;DHT22;14238;49.496;8.154;2022-07-06T08:16:06;18.20;99.90
26595;DHT22;14238;49.496;8.154;2022-07-06T08:18:31;18.20;99.90
26595;DHT22;14238;49.496;8.154;2022-07-06T08:20:57;18.30;99.90
26595;DHT22;14238;49.496;8.154;2022-07-06T08:23:23;18.40;99.90
26595;DHT22;14238;49.496;8.154;2022-07-06T08:25:49;18.40;99.90
26595;DHT22;14238;49.496;8.154;2022-07-06T08:28:14;18.60;99.90
26595;DHT22;14238;49.496;8.154;2022-07-06T08:30:40;18.70;99.90
26595;DHT22;14238;49.496;8.154;2022-07-06T08:33:05;18.70;99.90
26595;DHT22;14238;49.496;8.154;2022-07-06T08:35:31;18.90;99.90
26595;DHT22;14238;49.496;8.154;2022-07-06T08:37:57;19.20;99.90
26595;DHT22;14238;49.496;8.154;2022-07-06T08:40:23;19.40;99.90
26595;DHT22;14238;49.496;8.154;2022-07-06T08:42:53;19.20;99.90
26595;DHT22;14238;49.496;8.154;2022-07-06T08:45:19;18.80;99.90
26595;DHT22;14238;49.496;8.154;2022-07-06T08:47:46;19.00;99.90
26595;DHT22;14238;49.496;8.154;2022-07-06T08:50:14;19.30;99.90
26595;DHT22;14238;49.496;8.154;2022-07-06T08:52:41;19.80;99.90
26595;DHT22;14238;49.496;8.154;2022-07-06T08:55:08;19.70;99.90
26595;DHT22;14238;49.496;8.154;2022-07-06T08:57:34;20.00;99.90
26595;DHT22;14238;49.496;8.154;2022-07-06T09:00:00;19.90;99.90
26595;DHT22;14238;49.496;8.154;2022-07-06T09:02:27;19.70;99.90
26595;DHT22;14238;49.496;8.154;2022-07-06T09:04:54;19.30;99.90
26595;DHT22;14238;49.496;8.154;2022-07-06T09:07:21;19.40;99.90
26595;DHT22;14238;49.496;8.154;2022-07-06T09:09:47;19.80;99.80
26595;DHT22;14238;49.496;8.154;2022-07-06T09:12:13;20.10;99.10
26595;DHT22;14238;49.496;8.154;2022-07-06T09:14:39;20.30;99.90
26595;DHT22;14238;49.496;8.154;2022-07-06T09:17:05;20.10;99.30
26595;DHT22;14238;49.496;8.154;2022-07-06T09:19:32;20.20;99.90
26595;DHT22;14238;49.496;8.154;2022-07-06T09:22:00;20.40;99.90
26595;DHT22;14238;49.496;8.154;2022-07-06T09:24:25;20.10;98.80
26595;DHT22;14238;49.496;8.154;2022-07-06T09:26:54;20.00;99.90
26595;DHT22;14238;49.496;8.154;2022-07-06T09:29:31;20.20;97.50
26595;DHT22;14238;49.496;8.154;2022-07-06T09:32:01;20.20;99.20
26595;DHT22;14238;49.496;8.154;2022-07-06T09:34:45;20.20;99.40
26595;DHT22;14238;49.496;8.154;2022-07-06T09:37:12;20.10;98.50
26595;DHT22;14238;49.496;8.154;2022-07-06T09:39:37;20.20;98.90
26595;DHT22;14238;49.496;8.154;2022-07-06T09:42:04;20.30;98.30
26595;DHT22;14238;49.496;8.154;2022-07-06T09:44:37;20.50;98.40
26595;DHT22;14238;49.496;8.154;2022-07-06T09:47:07;20.90;96.60
26595;DHT22;14238;49.496;8.154;2022-07-06T09:49:34;21.10;96.70
26595;DHT22;14238;49.496;8.154;2022-07-06T09:52:05;21.10;96.80
26595;DHT22;14238;49.496;8.154;2022-07-06T09:54:33;21.00;96.30
26595;DHT22;14238;49.496;8.154;2022-07-06T09:57:00;21.00;96.80
26595;DHT22;14238;49.496;8.154;2022-07-06T09:59:27;21.10;96.60
26595;DHT22;14238;49.496;8.154;2022-07-06T10:01:59;21.40;96.00
26595;DHT22;14238;49.496;8.154;2022-07-06T10:04:26;21.70;96.40
26595;DHT22;14238;49.496;8.154;2022-07-06T10:06:54;21.80;95.70
26595;DHT22;14238;49.496;8.154;2022-07-06T10:09:21;21.90;95.70
26595;DHT22;14238;49.496;8.154;2022-07-06T10:11:52;21.80;96.10
26595;DHT22;14238;49.496;8.154;2022-07-06T10:14:22;21.20;94.70
26595;DHT22;14238;49.496;8.154;2022-07-06T10:16:48;21.40;95.80
26595;DHT22;14238;49.496;8.154;2022-07-06T10:19:15;21.30;94.40
26595;DHT22;14238;49.496;8.154;2022-07-06T10:21:41;21.20;95.10
26595;DHT22;14238;49.496;8.154;2022-07-06T10:24:08;21.10;94.60
26595;DHT22;14238;49.496;8.154;2022-07-06T10:26:35;21.40;94.40
26595;DHT22;14238;49.496;8.154;2022-07-06T10:29:02;21.40;94.30
26595;DHT22;14238;49.496;8.154;2022-07-06T10:31:29;21.10;93.70
26595;DHT22;14238;49.496;8.154;2022-07-06T10:33:57;21.10;93.90
26595;DHT22;14238;49.496;8.154;2022-07-06T10:36:24;21.30;93.80
26595;DHT22;14238;49.496;8.154;2022-07-06T10:38:51;21.90;94.10
26595;DHT22;14238;49.496;8.154;2022-07-06T10:41:17;22.30;93.50
26595;DHT22;14238;49.496;8.154;2022-07-06T10:43:46;22.00;93.40
26595;DHT22;14238;49.496;8.154;2022-07-06T10:46:13;21.50;92.60
26595;DHT22;14238;49.496;8.154;2022-07-06T10:48:43;21.40;93.30
26595;DHT22;14238;49.496;8.154;2022-07-06T10:51:26;21.80;92.50
26595;DHT22;14238;49.496;8.154;2022-07-06T10:54:00;22.10;92.80
26595;DHT22;14238;49.496;8.154;2022-07-06T10:56:36;22.20;91.40
26595;DHT22;14238;49.496;8.154;2022-07-06T10:59:08;22.60;91.30
26595;DHT22;14238;49.496;8.154;2022-07-06T11:01:34;22.80;89.30
26595;DHT22;14238;49.496;8.154;2022-07-06T11:06:26;22.50;90.20
26595;DHT22;14238;49.496;8.154;2022-07-06T11:09:03;22.50;92.10
26595;DHT22;14238;49.496;8.154;2022-07-06T11:19:20;23.00;88.10
26595;DHT22;14238;49.496;8.154;2022-07-06T11:21:48;23.40;87.20
26595;DHT22;14238;49.496;8.154;2022-07-06T11:24:17;23.80;84.10
26595;DHT22;14238;49.496;8.154;2022-07-06T11:26:45;23.70;83.90
26595;DHT22;14238;49.496;8.154;2022-07-06T11:29:12;23.80;85.20
26595;DHT22;14238;49.496;8.154;2022-07-06T11:31:40;23.80;85.10
26595;DHT22;14238;49.496;8.154;2022-07-06T11:34:07;23.80;79.90
26595;DHT22;14238;49.496;8.154;2022-07-06T11:36:34;23.90;82.00
26595;DHT22;14238;49.496;8.154;2022-07-06T11:38:59;23.60;85.70
26595;DHT22;14238;49.496;8.154;2022-07-06T11:41:25;23.60;82.30
26595;DHT22;14238;49.496;8.154;2022-07-06T11:43:51;23.80;84.50
26595;DHT22;14238;49.496;8.154;2022-07-06T11:49:00;24.00;82.30
26595;DHT22;14238;49.496;8.154;2022-07-06T11:51:27;23.90;79.30
26595;DHT22;14238;49.496;8.154;2022-07-06T11:53:55;23.50;80.40
26595;DHT22;14238;49.496;8.154;2022-07-06T11:56:23;23.90;81.50
26595;DHT22;14238;49.496;8.154;2022-07-06T11:58:56;23.80;79.50
26595;DHT22;14238;49.496;8.154;2022-07-06T12:01:23;24.30;84.40
26595;DHT22;14238;49.496;8.154;2022-07-06T12:03:50;24.40;82.20
26595;DHT22;14238;49.496;8.154;2022-07-06T12:06:22;24.60;76.70
26595;DHT22;14238;49.496;8.154;2022-07-06T12:08:52;24.40;79.20
26595;DHT22;14238;49.496;8.154;2022-07-06T12:11:23;24.20;75.70
26595;DHT22;14238;49.496;8.154;2022-07-06T12:13:53;24.30;77.10
26595;DHT22;14238;49.496;8.154;2022-07-06T12:16:20;24.40;76.50
26595;DHT22;14238;49.496;8.154;2022-07-06T12:18:47;24.30;75.50
26595;DHT22;14238;49.496;8.154;2022-07-06T12:21:17;24.50;73.50
26595;DHT22;14238;49.496;8.154;2022-07-06T12:23:45;24.60;74.80
26595;DHT22;14238;49.496;8.154;2022-07-06T12:26:13;24.80;73.20
26595;DHT22;14238;49.496;8.154;2022-07-06T12:28:40;25.00;70.60
26595;DHT22;14238;49.496;8.154;2022-07-06T12:31:05;24.80;69.80
26595;DHT22;14238;49.496;8.154;2022-07-06T12:33:31;25.00;72.30
26595;DHT22;14238;49.496;8.154;2022-07-06T12:36:07;24.80;70.70
26595;DHT22;14238;49.496;8.154;2022-07-06T12:38:33;25.20;67.50
26595;DHT22;14238;49.496;8.154;2022-07-06T12:40:59;24.80;69.70
26595;DHT22;14238;49.496;8.154;2022-07-06T12:43:41;25.10;67.10
26595;DHT22;14238;49.496;8.154;2022-07-06T12:49:02;24.60;65.60
26595;DHT22;14238;49.496;8.154;2022-07-06T12:51:28;24.20;68.20
26595;DHT22;14238;49.496;8.154;2022-07-06T12:54:11;24.30;69.60
26595;DHT22;14238;49.496;8.154;2022-07-06T12:56:56;24.50;70.70
26595;DHT22;14238;49.496;8.154;2022-07-06T12:59:22;25.00;72.30
26595;DHT22;14238;49.496;8.154;2022-07-06T13:01:48;25.20;71.30
26595;DHT22;14238;49.496;8.154;2022-07-06T13:04:16;25.30;69.70
26595;DHT22;14238;49.496;8.154;2022-07-06T13:06:41;25.00;68.90
26595;DHT22;14238;49.496;8.154;2022-07-06T13:09:07;25.30;67.70
26595;DHT22;14238;49.496;8.154;2022-07-06T13:11:32;25.20;68.40
26595;DHT22;14238;49.496;8.154;2022-07-06T13:13:59;25.40;72.20
26595;DHT22;14238;49.496;8.154;2022-07-06T13:16:25;25.10;70.70
26595;DHT22;14238;49.496;8.154;2022-07-06T13:18:55;25.20;71.20
26595;DHT22;14238;49.496;8.154;2022-07-06T13:21:21;24.70;71.50
26595;DHT22;14238;49.496;8.154;2022-07-06T13:23:47;24.40;75.50
26595;DHT22;14238;49.496;8.154;2022-07-06T13:26:13;24.90;71.80
26595;DHT22;14238;49.496;8.154;2022-07-06T13:28:38;24.90;69.80
26595;DHT22;14238;49.496;8.154;2022-07-06T13:31:04;24.90;70.00
26595;DHT22;14238;49.496;8.154;2022-07-06T13:33:30;24.90;69.40
26595;DHT22;14238;49.496;8.154;2022-07-06T13:35:55;25.30;66.80
26595;DHT22;14238;49.496;8.154;2022-07-06T13:38:21;25.30;68.10
26595;DHT22;14238;49.496;8.154;2022-07-06T13:40:46;25.70;71.90
26595;DHT22;14238;49.496;8.154;2022-07-06T13:43:12;25.80;67.40
26595;DHT22;14238;49.496;8.154;2022-07-06T13:45:38;25.70;67.90
26595;DHT22;14238;49.496;8.154;2022-07-06T13:48:03;25.50;69.80
26595;DHT22;14238;49.496;8.154;2022-07-06T13:50:29;25.60;69.30
26595;DHT22;14238;49.496;8.154;2022-07-06T13:52:58;25.60;69.30
26595;DHT22;14238;49.496;8.154;2022-07-06T13:55:23;24.50;65.20
26595;DHT22;14238;49.496;8.154;2022-07-06T13:57:49;24.20;66.10
26595;DHT22;14238;49.496;8.154;2022-07-06T14:00:15;24.00;71.10
26595;DHT22;14238;49.496;8.154;2022-07-06T14:02:46;23.90;72.40
26595;DHT22;14238;49.496;8.154;2022-07-06T14:05:11;24.20;70.90
26595;DHT22;14238;49.496;8.154;2022-07-06T14:07:37;24.60;71.30
26595;DHT22;14238;49.496;8.154;2022-07-06T14:10:03;24.90;71.90
26595;DHT22;14238;49.496;8.154;2022-07-06T14:12:28;25.20;70.80
26595;DHT22;14238;49.496;8.154;2022-07-06T14:14:54;25.10;73.20
26595;DHT22;14238;49.496;8.154;2022-07-06T14:17:19;24.90;73.00
26595;DHT22;14238;49.496;8.154;2022-07-06T14:19:45;24.70;72.70
26595;DHT22;14238;49.496;8.154;2022-07-06T14:22:11;24.30;70.70
26595;DHT22;14238;49.496;8.154;2022-07-06T14:24:36;24.00;72.40
26595;DHT22;14238;49.496;8.154;2022-07-06T14:27:02;23.70;72.40
26595;DHT22;14238;49.496;8.154;2022-07-06T14:29:27;23.80;73.40
26595;DHT22;14238;49.496;8.154;2022-07-06T14:31:53;23.70;73.60
26595;DHT22;14238;49.496;8.154;2022-07-06T14:34:18;23.60;72.70
26595;DHT22;14238;49.496;8.154;2022-07-06T14:36:44;23.70;73.90
26595;DHT22;14238;49.496;8.154;2022-07-06T14:39:09;23.80;73.40
26595;DHT22;14238;49.496;8.154;2022-07-06T14:41:38;23.50;72.60
26595;DHT22;14238;49.496;8.154;2022-07-06T14:44:03;23.20;74.40
26595;DHT22;14238;49.496;8.154;2022-07-06T14:46:30;23.00;73.20
26595;DHT22;14238;49.496;8.154;2022-07-06T14:48:55;22.80;73.90
26595;DHT22;14238;49.496;8.154;2022-07-06T14:51:21;22.90;74.30
26595;DHT22;14238;49.496;8.154;2022-07-06T14:53:46;23.10;74.10
26595;DHT22;14238;49.496;8.154;2022-07-06T14:56:12;23.10;75.20
26595;DHT22;14238;49.496;8.154;2022-07-06T14:58:37;23.10;73.80
26595;DHT22;14238;49.496;8.154;2022-07-06T15:01:03;23.00;76.00
26595;DHT22;14238;49.496;8.154;2022-07-06T15:03:29;23.00;73.20
26595;DHT22;14238;49.496;8.154;2022-07-06T15:05:54;22.60;75.30
26595;DHT22;14238;49.496;8.154;2022-07-06T15:08:20;22.70;78.10
26595;DHT22;14238;49.496;8.154;2022-07-06T15:10:45;22.70;76.90
26595;DHT22;14238;49.496;8.154;2022-07-06T15:13:11;22.60;75.10
26595;DHT22;14238;49.496;8.154;2022-07-06T15:15:37;22.50;75.20
26595;DHT22;14238;49.496;8.154;2022-07-06T15:18:03;22.40;76.60
26595;DHT22;14238;49.496;8.154;2022-07-06T15:20:29;22.30;78.40
26595;DHT22;14238;49.496;8.154;2022-07-06T15:22:55;22.40;79.70
26595;DHT22;14238;49.496;8.154;2022-07-06T15:25:20;22.60;80.40
26595;DHT22;14238;49.496;8.154;2022-07-06T15:27:50;22.60;78.10
26595;DHT22;14238;49.496;8.154;2022-07-06T15:30:16;22.50;79.00
26595;DHT22;14238;49.496;8.154;2022-07-06T15:32:41;22.50;79.30
26595;DHT22;14238;49.496;8.154;2022-07-06T15:35:07;22.40;78.90
26595;DHT22;14238;49.496;8.154;2022-07-06T15:37:34;22.40;80.20
26595;DHT22;14238;49.496;8.154;2022-07-06T15:40:00;22.50;78.90
26595;DHT22;14238;49.496;8.154;2022-07-06T15:42:26;22.40;78.90